Accueil
METAR-TAF:

METAR-TAF

Aéroports :

Aéroport de Vérone

Vérone, Italie

latitude: 45-23N, longitude: 010-52E, altitude: 67 m

Observation

Le bulletin a été fait il y a 17 minutes, à 21:50 UTC
Vent calme
Température 0°C
Humidité 100%
Pression 1005 hPa
Visibilité: 1500 m
Nuages épars à une hauteur de 600 ft
Nuages épars à une hauteur de 2000 ft
Brouillard mince, brume

METAR: LIPX 032150Z 00000KT 1500 R04/0300N MIFG BR SCT006 SCT020 00/M00 Q1005

Heure: 23:07 (22:07 UTC)

Prévision

Le bulletin a été fait il y a 2 heures et 7 minutes, à 20:00 UTC
Prévision valable du 03 à 21 UTC au 04 à 06 UTC
Vent 5 kt de direction variable
Visibilité: 3000 m
Nuages épars à une hauteur de 1500 ft
brume

TAF: LIPX 032000Z 0321/0406 VRB05KT 3000 BR SCT015

Observations et prévisions météorologiques de plus de 4000 aéroports (messages METAR et TAF).

Les stations disponibles sont représentées par des disques jaunes et rouges sur la carte.

Passer la souris dessus pour voir le nom de la station.

Cliquer dessus pour voir les observations et prévisions météorologiques.

Pour changer de carte: cliquez sur les boutons verts avec une croix noire pour zoomer, sur le bouton vert avec un tiret pour effectuer un zoom arrière, ou sur les flèches vertes pour les cartes adjacentes.


METAR-TAF: